createdAt,value
2019-05-20T00:00:49.240Z,16.34
2019-05-20T00:03:19.881Z,16.30
2019-05-20T00:05:51.515Z,16.16
2019-05-20T00:08:22.247Z,16.06
2019-05-20T00:10:52.975Z,15.94
2019-05-20T00:13:23.294Z,15.77
2019-05-20T00:15:54.168Z,16.48
2019-05-20T00:18:24.965Z,16.30
2019-05-20T00:20:55.325Z,15.58
2019-05-20T00:23:25.759Z,15.69
2019-05-20T00:25:56.154Z,15.58
2019-05-20T00:28:27.049Z,16.05
2019-05-20T00:30:57.843Z,15.91
2019-05-20T00:33:28.217Z,15.72
2019-05-20T00:35:59.232Z,15.51
2019-05-20T00:38:29.734Z,15.03
2019-05-20T00:41:00.129Z,15.40
2019-05-20T00:43:30.627Z,15.63
2019-05-20T00:46:01.467Z,14.98
2019-05-20T00:48:32.752Z,15.25
2019-05-20T00:51:03.166Z,15.78
2019-05-20T00:53:33.936Z,15.69
2019-05-20T00:56:04.644Z,15.04
2019-05-20T00:58:35.196Z,15.19
2019-05-20T01:01:05.586Z,15.31
2019-05-20T01:03:36.043Z,15.26
2019-05-20T01:06:06.954Z,15.21
2019-05-20T01:08:37.284Z,15.62
2019-05-20T01:11:07.671Z,16.07
2019-05-20T01:13:38.306Z,15.44
2019-05-20T01:16:08.650Z,16.11
2019-05-20T01:18:39.009Z,15.89
2019-05-20T01:21:09.795Z,15.32
2019-05-20T01:23:40.371Z,16.02
2019-05-20T01:26:10.733Z,15.73
2019-05-20T01:28:41.386Z,15.58
2019-05-20T01:31:12.161Z,15.74
2019-05-20T01:33:42.513Z,15.18
2019-05-20T01:36:13.400Z,15.18
2019-05-20T01:38:44.084Z,15.21
2019-05-20T01:41:14.464Z,15.10
2019-05-20T01:43:44.980Z,15.25
2019-05-20T01:46:15.714Z,15.68
2019-05-20T01:48:46.147Z,15.31
2019-05-20T01:51:16.605Z,15.51
2019-05-20T01:53:47.055Z,14.94
2019-05-20T01:56:17.563Z,15.24
2019-05-20T01:58:47.887Z,15.23
2019-05-20T02:01:18.605Z,15.19
2019-05-20T02:03:48.978Z,14.96
2019-05-20T02:06:19.434Z,14.90
2019-05-20T02:08:49.747Z,15.12
2019-05-20T02:11:20.190Z,15.06
2019-05-20T02:13:57.569Z,15.49
2019-05-20T02:16:29.000Z,15.13
2019-05-20T02:18:59.326Z,15.58
2019-05-20T02:21:30.089Z,15.78
2019-05-20T02:24:00.615Z,15.50
2019-05-20T02:26:31.043Z,15.59
2019-05-20T02:29:01.739Z,15.22
2019-05-20T02:31:32.414Z,15.33
2019-05-20T02:34:02.841Z,15.56
2019-05-20T02:36:33.127Z,15.36
2019-05-20T02:39:03.574Z,15.47
2019-05-20T02:41:34.463Z,15.66
2019-05-20T02:44:05.067Z,15.57
2019-05-20T02:46:35.466Z,15.58
2019-05-20T02:49:06.296Z,15.57
2019-05-20T02:51:37.064Z,15.52
2019-05-20T02:54:07.412Z,15.28
2019-05-20T02:56:38.191Z,15.54
2019-05-20T02:59:08.776Z,15.40
2019-05-20T03:01:39.173Z,15.11
2019-05-20T03:04:12.163Z,15.08
2019-05-20T03:06:42.798Z,15.05
2019-05-20T03:09:13.305Z,15.33
2019-05-20T03:11:43.969Z,15.11
2019-05-20T03:14:14.363Z,14.92
2019-05-20T03:16:45.263Z,15.06
2019-05-20T03:19:16.098Z,15.03
2019-05-20T03:21:46.441Z,14.96
2019-05-20T03:24:17.027Z,14.93
2019-05-20T03:26:48.010Z,15.06
2019-05-20T03:29:18.366Z,15.34
2019-05-20T03:31:48.791Z,15.32
2019-05-20T03:34:43.634Z,14.78
2019-05-20T03:36:51.552Z,14.70
2019-05-20T03:39:22.011Z,14.50
2019-05-20T03:41:52.379Z,14.35
2019-05-20T03:44:23.010Z,14.37
2019-05-20T03:46:53.712Z,14.61
2019-05-20T03:49:24.065Z,14.28
2019-05-20T03:51:54.489Z,14.36
2019-05-20T03:54:25.066Z,14.43
2019-05-20T03:56:56.394Z,14.48
2019-05-20T03:59:26.961Z,14.38
2019-05-20T04:01:57.794Z,14.28
2019-05-20T04:04:28.147Z,14.37
2019-05-20T04:06:58.499Z,14.52
2019-05-20T04:09:29.183Z,14.58
2019-05-20T04:11:59.561Z,14.83
2019-05-20T04:14:30.350Z,15.11
2019-05-20T04:17:00.724Z,15.36
2019-05-20T04:19:31.066Z,15.14
2019-05-20T04:22:01.838Z,15.26
2019-05-20T04:24:32.455Z,15.23
2019-05-20T04:27:02.774Z,15.30
2019-05-20T04:29:33.478Z,15.14
2019-05-20T04:32:04.166Z,15.12
2019-05-20T04:34:34.560Z,15.37
2019-05-20T04:37:04.977Z,15.42
2019-05-20T04:39:35.582Z,15.74
2019-05-20T04:42:06.911Z,16.03
2019-05-20T04:44:38.893Z,16.24
2019-05-20T04:47:09.296Z,16.36
2019-05-20T04:49:40.076Z,16.15
2019-05-20T04:52:10.797Z,16.36
2019-05-20T04:54:41.158Z,16.38
2019-05-20T04:57:11.930Z,16.88
2019-05-20T04:59:42.744Z,16.88
2019-05-20T05:02:14.046Z,17.09
2019-05-20T05:04:44.443Z,17.34
2019-05-20T05:07:14.979Z,17.53
2019-05-20T05:09:45.321Z,17.67
2019-05-20T05:12:15.918Z,17.69
2019-05-20T05:14:46.536Z,17.89
2019-05-20T05:17:17.157Z,18.15
2019-05-20T05:19:48.055Z,18.35
2019-05-20T05:22:18.545Z,18.59
2019-05-20T05:24:49.126Z,18.79
2019-05-20T05:27:19.919Z,19.01
2019-05-20T05:29:50.304Z,18.78
2019-05-20T05:32:39.545Z,18.86
2019-05-20T05:35:10.587Z,19.12
2019-05-20T05:37:40.966Z,19.32
2019-05-20T05:40:11.612Z,19.50
2019-05-20T05:42:42.408Z,19.82
2019-05-20T05:45:14.301Z,20.06
2019-05-20T05:47:44.615Z,20.31
2019-05-20T05:50:15.775Z,20.42
2019-05-20T05:52:46.377Z,20.66
2019-05-20T05:55:17.668Z,20.66
2019-05-20T05:57:48.275Z,20.82
2019-05-20T06:00:19.132Z,21.11
2019-05-20T06:02:49.436Z,21.30
2019-05-20T06:05:19.832Z,21.48
2019-05-20T06:07:50.616Z,21.57
2019-05-20T06:10:21.189Z,21.79
2019-05-20T06:12:51.581Z,21.91
2019-05-20T06:15:23.417Z,22.22
2019-05-20T06:17:53.735Z,22.31
2019-05-20T06:20:24.607Z,22.32
2019-05-20T06:22:54.980Z,22.41
2019-05-20T06:25:25.459Z,22.48
2019-05-20T06:27:56.235Z,22.70
2019-05-20T06:30:40.849Z,22.51
2019-05-20T06:33:11.338Z,22.40
2019-05-20T06:35:42.179Z,22.63
2019-05-20T06:38:34.618Z,22.71
2019-05-20T06:41:06.274Z,22.91
2019-05-20T06:43:37.036Z,23.16
2019-05-20T06:46:07.687Z,23.21
2019-05-20T06:48:37.990Z,23.14
2019-05-20T06:51:08.807Z,23.09
2019-05-20T06:53:39.226Z,23.15
2019-05-20T06:56:09.862Z,23.23
2019-05-20T06:58:40.162Z,22.94
2019-05-20T07:01:11.606Z,22.95
2019-05-20T07:03:42.443Z,22.92
2019-05-20T07:06:12.808Z,22.74
2019-05-20T07:08:43.257Z,22.70
2019-05-20T07:11:14.079Z,22.60
2019-05-20T07:13:44.859Z,22.36
2019-05-20T07:16:15.335Z,22.13
2019-05-20T07:18:46.372Z,22.09
2019-05-20T07:21:16.930Z,22.16
2019-05-20T07:23:47.376Z,22.13
2019-05-20T07:26:17.944Z,22.26
2019-05-20T07:28:48.394Z,22.05
2019-05-20T07:31:19.343Z,21.87
2019-05-20T07:33:49.957Z,21.87
2019-05-20T07:36:20.323Z,21.77
2019-05-20T07:38:52.058Z,21.87
2019-05-20T07:41:22.924Z,21.99
2019-05-20T07:43:53.242Z,21.67
2019-05-20T07:46:24.235Z,21.83
2019-05-20T07:48:55.445Z,21.98
2019-05-20T07:51:26.610Z,21.95
2019-05-20T07:53:58.421Z,21.91
2019-05-20T07:56:32.199Z,21.93
2019-05-20T07:59:05.437Z,22.21
2019-05-20T08:01:35.790Z,22.27
2019-05-20T08:04:06.199Z,22.32
2019-05-20T08:06:37.627Z,22.27
2019-05-20T08:09:08.730Z,22.54
2019-05-20T08:11:39.514Z,22.64
2019-05-20T08:14:10.230Z,22.88
2019-05-20T08:16:40.687Z,23.01
2019-05-20T08:19:11.513Z,23.04
2019-05-20T08:21:42.211Z,23.45
2019-05-20T08:24:12.666Z,23.47
2019-05-20T08:26:43.434Z,23.52
2019-05-20T08:29:13.817Z,23.42
2019-05-20T08:31:44.451Z,23.84
2019-05-20T08:34:14.911Z,23.85
2019-05-20T08:36:46.197Z,24.28
2019-05-20T08:39:16.567Z,24.55
2019-05-20T08:41:47.030Z,24.90
2019-05-20T08:44:17.327Z,24.84
2019-05-20T08:46:47.914Z,24.68
2019-05-20T08:49:18.748Z,24.75
2019-05-20T08:51:49.047Z,24.84
2019-05-20T08:54:19.468Z,25.26
2019-05-20T08:56:50.467Z,25.42
2019-05-20T08:59:21.774Z,25.55
2019-05-20T09:01:52.239Z,25.65
2019-05-20T09:04:23.811Z,25.88
2019-05-20T09:06:54.218Z,26.26
2019-05-20T09:09:25.216Z,26.60
2019-05-20T09:11:55.751Z,26.53
2019-05-20T09:14:26.246Z,25.77
2019-05-20T09:16:57.038Z,25.59
2019-05-20T09:19:27.344Z,25.26
2019-05-20T09:21:57.708Z,25.72
2019-05-20T09:24:29.835Z,25.38
2019-05-20T09:27:00.465Z,26.01
2019-05-20T09:29:30.862Z,26.45
2019-05-20T09:32:01.704Z,26.34
2019-05-20T09:34:32.562Z,26.04
2019-05-20T09:37:03.634Z,26.74
2019-05-20T09:39:34.070Z,26.70
2019-05-20T09:42:04.606Z,25.66
2019-05-20T09:44:35.416Z,25.92
2019-05-20T09:47:06.076Z,24.56
2019-05-20T09:49:36.481Z,24.70
2019-05-20T09:52:07.272Z,24.71
2019-05-20T09:54:37.744Z,24.41
2019-05-20T09:57:08.062Z,24.05
2019-05-20T09:59:43.132Z,23.51
2019-05-20T10:02:10.651Z,23.66
2019-05-20T10:04:41.134Z,23.66
2019-05-20T10:07:11.624Z,23.57
2019-05-20T10:09:42.589Z,23.12
2019-05-20T10:12:12.918Z,22.96
2019-05-20T10:14:43.332Z,22.79
2019-05-20T10:17:14.171Z,22.91
2019-05-20T10:19:44.607Z,22.92
2019-05-20T10:22:14.927Z,23.00
2019-05-20T10:24:45.765Z,22.30
2019-05-20T10:27:16.270Z,22.21
2019-05-20T10:29:47.697Z,21.79
2019-05-20T10:32:18.362Z,21.38
2019-05-20T10:34:48.986Z,21.07
2019-05-20T10:37:19.453Z,20.71
2019-05-20T10:39:49.937Z,20.26
2019-05-20T10:42:20.318Z,19.82
2019-05-20T10:44:51.090Z,19.28
2019-05-20T10:47:21.680Z,18.44
2019-05-20T10:49:52.054Z,17.62
2019-05-20T10:52:24.024Z,16.94
2019-05-20T10:54:54.568Z,16.94
2019-05-20T10:57:24.880Z,16.66
2019-05-20T10:59:55.316Z,16.83
2019-05-20T11:02:31.141Z,17.02
2019-05-20T11:04:59.273Z,17.20
2019-05-20T11:07:29.662Z,17.25
2019-05-20T11:10:00.163Z,17.19
2019-05-20T11:12:30.777Z,17.20
2019-05-20T11:15:01.791Z,17.22
2019-05-20T11:17:32.165Z,17.18
2019-05-20T11:20:02.906Z,17.27
2019-05-20T11:22:33.638Z,17.35
2019-05-20T11:25:04.317Z,17.35
2019-05-20T11:27:34.691Z,17.50
2019-05-20T11:30:05.917Z,17.52
2019-05-20T11:32:36.274Z,17.69
2019-05-20T11:35:07.346Z,17.86
2019-05-20T11:37:38.178Z,17.86
2019-05-20T11:40:10.538Z,18.05
2019-05-20T11:42:41.964Z,18.10
2019-05-20T11:45:14.034Z,18.24
2019-05-20T11:47:44.596Z,18.41
2019-05-20T11:50:15.823Z,18.38
2019-05-20T11:52:46.231Z,18.59
2019-05-20T11:55:16.879Z,18.49
2019-05-20T11:57:47.337Z,18.61
2019-05-20T12:00:17.933Z,18.59
2019-05-20T12:02:48.379Z,18.73
2019-05-20T12:05:19.104Z,18.81
2019-05-20T12:07:49.485Z,18.96
2019-05-20T12:10:19.977Z,18.89
2019-05-20T12:12:50.419Z,18.81
2019-05-20T12:15:20.870Z,18.49
2019-05-20T12:17:51.501Z,18.44
2019-05-20T12:20:21.943Z,18.26
2019-05-20T12:22:52.404Z,18.17
2019-05-20T12:25:23.138Z,18.13
2019-05-20T12:27:53.492Z,18.15
2019-05-20T12:30:23.802Z,17.99
2019-05-20T12:33:17.343Z,17.55
2019-05-20T12:35:27.072Z,17.15
2019-05-20T12:37:57.421Z,16.53
2019-05-20T12:40:28.302Z,16.09
2019-05-20T12:42:59.116Z,15.53
2019-05-20T12:45:29.649Z,15.08
2019-05-20T12:48:00.194Z,14.51
2019-05-20T12:50:30.541Z,14.38
2019-05-20T12:53:01.323Z,14.32
2019-05-20T12:55:31.856Z,14.31
2019-05-20T12:58:02.169Z,14.40
2019-05-20T13:00:32.610Z,14.41
2019-05-20T13:03:03.399Z,14.53
2019-05-20T13:05:33.900Z,14.49
2019-05-20T13:08:05.179Z,14.59
2019-05-20T13:10:37.436Z,14.63
2019-05-20T13:13:07.818Z,14.83
2019-05-20T13:15:38.185Z,14.99
2019-05-20T13:18:08.705Z,15.22
2019-05-20T13:20:39.429Z,15.56
2019-05-20T13:23:12.015Z,15.80
2019-05-20T13:25:41.902Z,15.97
2019-05-20T13:28:12.333Z,16.14
2019-05-20T13:30:42.769Z,16.37
2019-05-20T13:33:13.096Z,16.62
2019-05-20T13:35:43.555Z,16.86
2019-05-20T13:38:14.245Z,16.86
2019-05-20T13:40:46.916Z,17.03
2019-05-20T13:43:16.693Z,16.77
2019-05-20T13:45:48.395Z,17.13
2019-05-20T13:48:19.123Z,17.35
2019-05-20T13:50:49.782Z,17.61
2019-05-20T13:53:20.103Z,17.78
2019-05-20T13:55:50.563Z,17.96
2019-05-20T13:58:21.442Z,18.33
2019-05-20T14:00:51.796Z,18.65
2019-05-20T14:03:22.178Z,19.07
2019-05-20T14:05:52.791Z,19.21
2019-05-20T14:08:23.728Z,19.69
2019-05-20T14:11:03.521Z,19.44
2019-05-20T14:13:26.691Z,19.80
2019-05-20T14:15:57.439Z,19.36
2019-05-20T14:18:28.760Z,19.39
2019-05-20T14:20:59.472Z,19.58
2019-05-20T14:23:29.930Z,19.28
2019-05-20T14:26:00.247Z,18.89
2019-05-20T14:28:30.660Z,18.88
2019-05-20T14:31:05.652Z,18.48
2019-05-20T14:33:33.520Z,18.08
2019-05-20T14:36:03.992Z,18.14
2019-05-20T14:38:34.875Z,17.93
2019-05-20T14:41:20.524Z,17.84
2019-05-20T14:43:37.462Z,17.81
2019-05-20T14:46:08.026Z,17.70
2019-05-20T14:48:38.562Z,17.50
2019-05-20T14:51:08.909Z,17.21
2019-05-20T14:53:39.591Z,17.03
2019-05-20T14:56:09.928Z,16.79
2019-05-20T14:58:40.406Z,16.50
2019-05-20T15:01:10.780Z,16.19
2019-05-20T15:03:41.360Z,15.82
2019-05-20T15:06:12.118Z,15.36
2019-05-20T15:08:42.731Z,15.17
2019-05-20T15:11:13.107Z,15.17
2019-05-20T15:13:43.884Z,15.20
2019-05-20T15:16:14.569Z,15.30
2019-05-20T15:18:44.947Z,15.49
2019-05-20T15:21:15.832Z,16.34
2019-05-20T15:23:46.723Z,17.03
2019-05-20T15:26:18.240Z,17.55
2019-05-20T15:28:48.685Z,17.85
2019-05-20T15:31:19.000Z,17.86
2019-05-20T15:33:49.739Z,17.84
2019-05-20T15:36:20.447Z,18.06
2019-05-20T15:38:50.893Z,18.54
2019-05-20T15:41:21.325Z,19.01
2019-05-20T15:43:52.272Z,19.15
2019-05-20T15:46:22.612Z,19.57
2019-05-20T15:48:53.064Z,20.10
2019-05-20T15:51:23.483Z,19.50
2019-05-20T15:53:53.820Z,19.86
2019-05-20T15:56:24.213Z,20.20
2019-05-20T15:58:54.687Z,20.05
2019-05-20T16:01:26.067Z,19.87
2019-05-20T16:03:56.564Z,20.59
2019-05-20T16:06:26.897Z,19.93
2019-05-20T16:08:57.451Z,20.72
2019-05-20T16:11:28.177Z,20.69
2019-05-20T16:13:58.558Z,21.18
2019-05-20T16:16:30.028Z,20.97
2019-05-20T16:19:00.805Z,21.39
2019-05-20T16:21:31.287Z,20.95
2019-05-20T16:24:01.691Z,20.40
2019-05-20T16:26:32.415Z,20.17
2019-05-20T16:29:02.924Z,19.64
2019-05-20T16:31:33.610Z,20.14
2019-05-20T16:34:04.130Z,19.57
2019-05-20T16:36:34.601Z,19.14
2019-05-20T16:39:06.780Z,18.75
2019-05-20T16:41:37.342Z,18.62
2019-05-20T16:44:07.768Z,18.59
2019-05-20T16:46:38.599Z,18.19
2019-05-20T16:49:09.165Z,18.01
2019-05-20T16:51:39.582Z,17.05
2019-05-20T16:54:10.116Z,17.59
2019-05-20T16:56:40.742Z,17.58
2019-05-20T16:59:11.161Z,17.48
2019-05-20T17:01:46.419Z,17.78
2019-05-20T17:04:14.133Z,17.74
2019-05-20T17:06:44.558Z,17.74
2019-05-20T17:09:15.126Z,17.70
2019-05-20T17:11:45.444Z,18.04
2019-05-20T17:14:16.058Z,18.04
2019-05-20T17:16:46.811Z,17.76
2019-05-20T17:19:17.134Z,17.72
2019-05-20T17:21:47.635Z,17.58
2019-05-20T17:24:18.680Z,17.22
2019-05-20T17:26:49.002Z,17.43
2019-05-20T17:29:19.628Z,17.13
2019-05-20T17:31:50.442Z,16.46
2019-05-20T17:34:20.806Z,16.46
2019-05-20T17:36:51.315Z,16.48
2019-05-20T17:39:21.699Z,16.59
2019-05-20T17:41:52.440Z,16.39
2019-05-20T17:44:23.184Z,16.46
2019-05-20T17:46:53.492Z,16.30
2019-05-20T17:49:24.369Z,16.13
2019-05-20T17:51:55.467Z,16.53
2019-05-20T17:54:25.798Z,16.07
2019-05-20T17:56:56.295Z,16.41
2019-05-20T17:59:26.867Z,15.85
2019-05-20T18:01:57.272Z,15.77
2019-05-20T18:04:27.586Z,15.90
2019-05-20T18:06:58.420Z,15.74
2019-05-20T18:09:30.662Z,15.81
2019-05-20T18:12:01.488Z,15.94
2019-05-20T18:14:31.949Z,16.28
2019-05-20T18:17:02.304Z,15.64
2019-05-20T18:19:33.149Z,15.70
2019-05-20T18:22:03.508Z,14.96
2019-05-20T18:24:33.941Z,15.34
2019-05-20T18:27:04.805Z,14.58
2019-05-20T18:29:36.354Z,14.98
2019-05-20T18:32:06.726Z,15.21
2019-05-20T18:34:37.289Z,15.28
2019-05-20T18:37:07.722Z,14.40
2019-05-20T18:39:38.050Z,15.03
2019-05-20T18:42:08.672Z,14.65
2019-05-20T18:44:39.315Z,14.47
2019-05-20T18:47:09.664Z,14.69
2019-05-20T18:49:41.304Z,14.70
2019-05-20T18:52:12.351Z,14.63
2019-05-20T18:54:42.778Z,15.01
2019-05-20T18:57:13.251Z,14.37
2019-05-20T18:59:44.066Z,14.76
2019-05-20T19:02:14.473Z,14.84
2019-05-20T19:04:44.881Z,15.16
2019-05-20T19:07:15.303Z,14.73
2019-05-20T19:09:45.868Z,14.67
2019-05-20T19:12:16.922Z,14.98
2019-05-20T19:14:47.318Z,14.11
2019-05-20T19:17:17.996Z,14.68
2019-05-20T19:19:48.811Z,14.78
2019-05-20T19:22:19.339Z,14.64
2019-05-20T19:24:49.698Z,14.46
2019-05-20T19:27:20.354Z,14.66
2019-05-20T19:29:50.764Z,14.84
2019-05-20T19:32:21.970Z,14.82
2019-05-20T19:34:52.415Z,14.54
2019-05-20T19:37:22.850Z,14.53
2019-05-20T19:39:53.275Z,14.49
2019-05-20T19:42:24.146Z,13.84
2019-05-20T19:44:55.580Z,14.03
2019-05-20T19:47:26.338Z,14.09
2019-05-20T19:49:56.750Z,13.54
2019-05-20T19:52:28.535Z,13.83
2019-05-20T19:54:59.440Z,13.89
2019-05-20T19:57:30.768Z,14.13
2019-05-20T20:00:01.119Z,13.87
2019-05-20T20:02:31.957Z,13.33
2019-05-20T20:05:02.434Z,13.55
2019-05-20T20:07:32.751Z,13.68
2019-05-20T20:10:03.451Z,13.18
2019-05-20T20:12:35.152Z,13.78
2019-05-20T20:15:06.270Z,13.39
2019-05-20T20:17:36.836Z,13.19
2019-05-20T20:20:07.264Z,13.78
2019-05-20T20:22:38.016Z,13.81
2019-05-20T20:25:08.766Z,13.56
2019-05-20T20:27:39.083Z,13.26
2019-05-20T20:30:10.729Z,13.35
2019-05-20T20:32:41.295Z,13.15
2019-05-20T20:35:11.801Z,13.31
2019-05-20T20:37:43.259Z,13.33
2019-05-20T20:40:14.013Z,13.67
2019-05-20T20:42:44.374Z,13.27
2019-05-20T20:45:15.114Z,13.18
2019-05-20T20:47:45.666Z,13.22
2019-05-20T20:50:17.052Z,13.26
2019-05-20T20:52:47.748Z,13.13
2019-05-20T20:55:18.049Z,13.17
2019-05-20T20:57:48.624Z,13.38
2019-05-20T21:00:19.682Z,13.48
2019-05-20T21:02:53.136Z,13.55
2019-05-20T21:05:22.063Z,13.57
2019-05-20T21:07:52.499Z,13.48
2019-05-20T21:10:22.895Z,12.82
2019-05-20T21:12:53.365Z,12.84
2019-05-20T21:15:23.987Z,12.67
2019-05-20T21:17:54.529Z,12.40
2019-05-20T21:20:25.165Z,12.33
2019-05-20T21:22:55.505Z,12.45
2019-05-20T21:25:25.855Z,12.49
2019-05-20T21:27:56.736Z,12.52
2019-05-20T21:30:27.048Z,12.69
2019-05-20T21:33:08.783Z,12.56
2019-05-20T21:35:29.765Z,12.67
2019-05-20T21:38:00.280Z,12.74
2019-05-20T21:40:30.609Z,11.81
2019-05-20T21:43:01.312Z,11.89
2019-05-20T21:45:32.056Z,12.09
2019-05-20T21:48:02.568Z,11.94
2019-05-20T21:50:33.321Z,11.83
2019-05-20T21:53:03.789Z,11.88
2019-05-20T21:55:34.420Z,11.64
2019-05-20T21:58:04.941Z,11.58
2019-05-20T22:00:47.862Z,11.50
2019-05-20T22:03:24.483Z,11.42
2019-05-20T22:05:50.511Z,11.52
2019-05-20T22:08:21.052Z,11.69
2019-05-20T22:10:51.812Z,11.59
2019-05-20T22:13:22.487Z,11.66
2019-05-20T22:15:52.767Z,11.66
2019-05-20T22:18:23.204Z,11.65
2019-05-20T22:20:53.957Z,11.54
2019-05-20T22:23:52.521Z,11.83
2019-05-20T22:26:23.150Z,11.39
2019-05-20T22:28:53.511Z,11.08
2019-05-20T22:31:24.113Z,11.47
2019-05-20T22:33:54.543Z,11.41
2019-05-20T22:36:24.847Z,11.61
2019-05-20T22:38:55.542Z,11.62
2019-05-20T22:41:26.132Z,11.50
2019-05-20T22:43:57.527Z,11.81
2019-05-20T22:46:27.851Z,11.64
2019-05-20T22:48:58.483Z,11.74
2019-05-20T22:51:28.841Z,11.70
2019-05-20T22:53:59.221Z,11.57
2019-05-20T22:56:29.952Z,11.80
2019-05-20T22:59:00.584Z,11.90
2019-05-20T23:01:30.882Z,11.43
2019-05-20T23:04:01.311Z,11.47
2019-05-20T23:06:31.694Z,11.74
2019-05-20T23:09:01.990Z,10.99
2019-05-20T23:11:34.128Z,11.08
2019-05-20T23:14:05.047Z,11.15
2019-05-20T23:16:35.345Z,11.08
2019-05-20T23:19:05.864Z,11.29
2019-05-20T23:21:36.351Z,11.40
2019-05-20T23:24:06.728Z,11.22
2019-05-20T23:26:37.058Z,11.83
2019-05-20T23:29:07.634Z,11.93
2019-05-20T23:31:38.320Z,11.97
2019-05-20T23:34:12.869Z,11.96
2019-05-20T23:36:41.139Z,11.95
2019-05-20T23:39:11.746Z,11.69
2019-05-20T23:41:42.441Z,11.53
2019-05-20T23:44:12.963Z,11.33
2019-05-20T23:46:43.282Z,11.49
2019-05-20T23:49:13.963Z,11.83
2019-05-20T23:51:44.266Z,11.54
2019-05-20T23:54:14.695Z,11.06
2019-05-20T23:56:45.409Z,11.15
2019-05-20T23:59:15.936Z,10.96
